Time;durP1;ratioP1;P1;durP2;ratioP2;P2;SDS_P1;SDS_P2;PMS_P1;PMS_P2;Temp;Humidity;BMP_temperature;BMP_pressure;BME280_temperature;BME280_humidity;BME280_pressure;Samples;Min_cycle;Max_cycle;Signal;HPM_P1;HPM_P2
2021/09/06 00:01:38;;;;;;;;;;;;;;;15.24;70.22;102280.22;5093454;28;20340;-35
2021/09/06 00:04:03;;;;;;;;;;;;;;;15.23;70.83;102284.00;5093515;28;20319;-35
2021/09/06 00:06:28;;;;;;;;;;;;;;;15.23;71.93;102286.72;5093743;28;19947;-35
2021/09/06 00:08:53;;;;;;;;;;;;;;;15.19;71.27;102292.63;5093165;28;19908;-35
2021/09/06 00:11:19;;;;;;;;;;;;;;;15.17;71.02;102286.53;5092920;28;19908;-35
2021/09/06 00:13:44;;;;;;;;;;;;;;;15.15;71.14;102296.03;5093261;28;19918;-35
2021/09/06 00:16:09;;;;;;;;;;;;;;;15.12;70.92;102293.75;5093432;28;20354;-35
2021/09/06 00:18:35;;;;;;;;;;;;;;;15.08;71.02;102287.06;5092989;28;19908;-35
2021/09/06 00:21:06;;;;;;;;;;;;;;;15.01;71.18;102292.59;5093923;28;19947;-35
2021/09/06 00:23:31;;;;;;;;;;;;;;;14.97;70.92;102291.38;5093358;28;19986;-35
2021/09/06 00:25:56;;;;;;;;;;;;;;;14.94;71.10;102297.28;5093608;28;19939;-35
2021/09/06 00:28:21;;;;;;;;;;;;;;;14.95;71.82;102296.22;5093246;28;20383;-35
2021/09/06 00:30:47;;;;;;;;;;;;;;;14.94;71.54;102298.13;5093113;28;20022;-35
2021/09/06 00:33:12;;;;;;;;;;;;;;;14.93;71.56;102298.31;5093033;28;20248;-35
2021/09/06 00:35:37;;;;;;;;;;;;;;;14.90;71.15;102301.53;5093024;28;20356;-35
2021/09/06 00:38:03;;;;;;;;;;;;;;;14.85;71.42;102301.38;5093435;28;19980;-35
2021/09/06 00:40:28;;;;;;;;;;;;;;;14.79;71.37;102296.81;5092959;28;20394;-35
2021/09/06 00:42:53;;;;;;;;;;;;;;;14.74;71.56;102296.63;5092884;28;19915;-35
2021/09/06 00:45:19;;;;;;;;;;;;;;;14.68;71.60;102287.47;5093633;28;19908;-35
2021/09/06 00:47:44;;;;;;;;;;;;;;;14.63;71.67;102290.84;5092942;28;19908;-35
2021/09/06 00:50:13;;;;;;;;;;;;;;;14.59;71.96;102296.97;5092858;28;19908;-35
2021/09/06 00:52:39;;;;;;;;;;;;;;;14.53;71.97;102301.41;5092543;28;19943;-35
2021/09/06 00:55:05;;;;;;;;;;;;;;;14.48;71.95;102295.81;5093318;28;20270;-35
2021/09/06 00:57:30;;;;;;;;;;;;;;;14.50;71.95;102301.03;5093614;28;20007;-37
2021/09/06 00:59:55;;;;;;;;;;;;;;;14.51;72.21;102300.81;5096313;28;19931;-35
2021/09/06 01:02:21;;;;;;;;;;;;;;;14.46;72.08;102291.63;5096132;28;19915;-36
2021/09/06 01:04:46;;;;;;;;;;;;;;;14.41;72.28;102297.72;5096313;28;19908;-36
2021/09/06 01:07:11;;;;;;;;;;;;;;;14.35;72.23;102294.00;5095963;28;19908;-35
2021/09/06 01:09:36;;;;;;;;;;;;;;;14.30;71.99;102296.56;5078118;28;19908;-35
2021/09/06 01:12:02;;;;;;;;;;;;;;;14.23;72.33;102287.59;5096711;28;19915;-35
2021/09/06 01:14:27;;;;;;;;;;;;;;;14.18;72.65;102287.41;5096395;28;19923;-35
2021/09/06 01:16:52;;;;;;;;;;;;;;;14.15;72.27;102293.28;5096614;28;19931;-35
2021/09/06 01:19:18;;;;;;;;;;;;;;;14.10;72.46;102293.97;5096043;28;20292;-35
2021/09/06 01:21:43;;;;;;;;;;;;;;;14.03;72.51;102292.34;5096001;28;19908;-35
2021/09/06 01:24:08;;;;;;;;;;;;;;;14.00;72.77;102292.75;5095950;28;19918;-35
2021/09/06 01:26:33;;;;;;;;;;;;;;;13.96;72.64;102295.09;5096459;28;20268;-35
2021/09/06 01:28:59;;;;;;;;;;;;;;;13.93;72.82;102286.53;5095519;28;20384;-35
2021/09/06 01:31:24;;;;;;;;;;;;;;;13.90;72.90;102290.53;5095800;28;19915;-35
2021/09/06 01:33:50;;;;;;;;;;;;;;;13.87;72.84;102291.81;5096202;28;20397;-35
2021/09/06 01:36:15;;;;;;;;;;;;;;;13.86;73.00;102289.31;5096013;28;19908;-35
2021/09/06 01:38:40;;;;;;;;;;;;;;;13.82;73.18;102288.91;5095629;28;19998;-35
2021/09/06 01:41:05;;;;;;;;;;;;;;;13.80;73.27;102282.00;5095703;28;19950;-35
2021/09/06 01:43:31;;;;;;;;;;;;;;;13.77;73.33;102290.63;5096072;28;20033;-35
2021/09/06 01:45:56;;;;;;;;;;;;;;;13.74;73.09;102291.03;5095826;28;19908;-35
2021/09/06 01:48:21;;;;;;;;;;;;;;;13.75;73.33;102288.09;5093434;28;19908;-35
2021/09/06 01:50:46;;;;;;;;;;;;;;;13.75;73.38;102279.09;5095356;28;19908;-35
2021/09/06 01:53:11;;;;;;;;;;;;;;;13.77;73.31;102282.47;5095091;28;19908;-35
2021/09/06 01:55:37;;;;;;;;;;;;;;;13.75;73.36;102282.66;5095613;28;19915;-35
2021/09/06 01:58:02;;;;;;;;;;;;;;;13.73;73.54;102283.94;5095278;28;19915;-35
2021/09/06 02:00:27;;;;;;;;;;;;;;;13.69;73.28;102285.41;5095501;28;19908;-35
2021/09/06 02:02:52;;;;;;;;;;;;;;;13.63;73.15;102282.50;5095168;28;19994;-35
2021/09/06 02:05:17;;;;;;;;;;;;;;;13.56;73.09;102289.84;5095202;28;20005;-35
2021/09/06 02:07:43;;;;;;;;;;;;;;;13.51;73.56;102288.81;5095585;28;19983;-35
2021/09/06 02:10:08;;;;;;;;;;;;;;;13.47;73.63;102298.47;5094274;28;19912;-35
2021/09/06 02:12:33;;;;;;;;;;;;;;;13.45;73.81;102289.69;5095905;28;19965;-35
2021/09/06 02:14:59;;;;;;;;;;;;;;;13.43;73.64;102295.34;5095602;28;19912;-35
2021/09/06 02:17:24;;;;;;;;;;;;;;;13.41;73.99;102300.16;5095540;28;19950;-35
2021/09/06 02:19:49;;;;;;;;;;;;;;;13.39;74.12;102294.94;5094912;28;19912;-35
2021/09/06 02:22:14;;;;;;;;;;;;;;;13.40;74.16;102301.22;5094646;28;19916;-35
2021/09/06 02:24:40;;;;;;;;;;;;;;;13.41;74.06;102292.00;5094504;28;19978;-35
2021/09/06 02:27:05;;;;;;;;;;;;;;;13.41;74.01;102292.00;5093823;28;19908;-35
2021/09/06 02:29:30;;;;;;;;;;;;;;;13.42;74.18;102287.41;5094642;28;19912;-35
2021/09/06 02:31:55;;;;;;;;;;;;;;;13.40;74.08;102288.44;5094364;28;20010;-35
2021/09/06 02:34:20;;;;;;;;;;;;;;;13.35;73.98;102287.44;5094310;28;19947;-35
2021/09/06 02:36:46;;;;;;;;;;;;;;;13.31;73.84;102297.88;5094854;28;19907;-35
2021/09/06 02:39:11;;;;;;;;;;;;;;;13.26;74.21;102286.81;5094158;28;19908;-35
2021/09/06 02:41:36;;;;;;;;;;;;;;;13.20;74.25;102297.69;5093623;28;19998;-35
2021/09/06 02:44:01;;;;;;;;;;;;;;;13.16;74.22;102294.56;5093254;28;20300;-35
2021/09/06 02:46:26;;;;;;;;;;;;;;;13.12;74.41;102287.88;5094413;28;19908;-35
2021/09/06 02:48:52;;;;;;;;;;;;;;;13.07;74.31;102293.13;5094623;28;19915;-35
2021/09/06 02:51:17;;;;;;;;;;;;;;;13.05;74.42;102298.75;5094084;28;20010;-35
2021/09/06 02:53:42;;;;;;;;;;;;;;;13.04;74.66;102297.09;5094720;28;19999;-35
2021/09/06 02:56:07;;;;;;;;;;;;;;;13.05;75.40;102292.50;5094789;28;19912;-35
2021/09/06 02:58:33;;;;;;;;;;;;;;;13.06;74.87;102295.00;5094062;28;19958;-35
2021/09/06 03:00:58;;;;;;;;;;;;;;;13.07;74.82;102303.97;5094249;28;20352;-35
2021/09/06 03:03:23;;;;;;;;;;;;;;;13.08;74.93;102292.94;5094047;28;20360;-35
2021/09/06 03:05:48;;;;;;;;;;;;;;;13.12;74.73;102298.75;5093886;28;20367;-35
2021/09/06 03:08:14;;;;;;;;;;;;;;;13.08;74.67;102297.53;5093955;28;19915;-35
2021/09/06 03:10:39;;;;;;;;;;;;;;;13.01;74.49;102292.09;5094211;28;20241;-35
2021/09/06 03:13:04;;;;;;;;;;;;;;;12.96;74.67;102297.31;5093578;28;20301;-35
2021/09/06 03:15:29;;;;;;;;;;;;;;;12.93;74.61;102300.44;5094937;28;19919;-35
2021/09/06 03:17:55;;;;;;;;;;;;;;;12.88;74.86;102294.81;5094619;28;19908;-35
2021/09/06 03:20:20;;;;;;;;;;;;;;;12.75;74.65;102276.69;5093682;28;19908;-35
2021/09/06 03:22:45;;;;;;;;;;;;;;;12.78;75.07;102287.09;5094395;28;19965;-35
2021/09/06 03:25:10;;;;;;;;;;;;;;;12.74;74.95;102288.59;5093580;28;19908;-35
2021/09/06 03:27:36;;;;;;;;;;;;;;;12.71;74.99;102286.28;5093850;28;19908;-35
2021/09/06 03:30:01;;;;;;;;;;;;;;;12.71;75.04;102293.59;5093622;28;19961;-35
2021/09/06 03:32:26;;;;;;;;;;;;;;;12.67;75.13;102289.63;5094518;28;19931;-35
2021/09/06 03:34:51;;;;;;;;;;;;;;;12.68;75.69;102296.72;5093855;28;19907;-35
2021/09/06 03:37:17;;;;;;;;;;;;;;;12.69;76.30;102295.66;5093697;28;20276;-35
2021/09/06 03:39:42;;;;;;;;;;;;;;;12.70;75.33;102290.06;5093237;28;20249;-35
2021/09/06 03:42:07;;;;;;;;;;;;;;;12.71;75.58;102296.31;5094318;28;19977;-35
2021/09/06 03:44:32;;;;;;;;;;;;;;;12.72;75.29;102300.69;5093207;28;20018;-35
2021/09/06 03:46:57;;;;;;;;;;;;;;;12.69;75.56;102303.81;5093263;28;19911;-35
2021/09/06 03:49:23;;;;;;;;;;;;;;;12.68;75.62;102294.00;5093368;28;19999;-35
2021/09/06 03:51:48;;;;;;;;;;;;;;;12.63;75.26;102295.47;5093357;28;19998;-35
2021/09/06 03:54:13;;;;;;;;;;;;;;;12.61;75.46;102296.72;5093174;28;19908;-35
2021/09/06 03:56:39;;;;;;;;;;;;;;;12.60;75.34;102295.91;5093214;28;20298;-35
2021/09/06 03:59:04;;;;;;;;;;;;;;;12.58;75.28;102289.81;5093568;28;19908;-35
2021/09/06 04:01:29;;;;;;;;;;;;;;;12.54;75.15;102295.88;5093117;28;19908;-35
2021/09/06 04:03:54;;;;;;;;;;;;;;;12.49;75.28;102295.66;5093449;28;20004;-35
2021/09/06 04:06:20;;;;;;;;;;;;;;;12.44;75.47;102290.88;5093471;28;20292;-35
2021/09/06 04:08:45;;;;;;;;;;;;;;;12.40;75.55;102292.34;5093634;28;19908;-35
2021/09/06 04:11:10;;;;;;;;;;;;;;;12.35;75.39;102294.84;5093719;28;20397;-35
2021/09/06 04:13:35;;;;;;;;;;;;;;;12.31;75.60;102286.28;5092999;28;19970;-35
2021/09/06 04:16:01;;;;;;;;;;;;;;;12.28;75.67;102280.44;5093408;28;20240;-35
2021/09/06 04:18:27;;;;;;;;;;;;;;;12.24;75.49;102285.44;5091605;28;19908;-35
2021/09/06 04:20:52;;;;;;;;;;;;;;;12.21;75.80;102285.03;5093830;28;20271;-35
2021/09/06 04:23:18;;;;;;;;;;;;;;;12.18;75.84;102285.44;5092974;28;19912;-35
2021/09/06 04:25:43;;;;;;;;;;;;;;;12.14;75.99;102278.75;5093561;28;20409;-35
2021/09/06 04:28:08;;;;;;;;;;;;;;;12.16;76.12;102292.94;5092693;28;19908;-35
2021/09/06 04:30:33;;;;;;;;;;;;;;;12.20;76.23;102294.19;5093032;28;19908;-35
2021/09/06 04:32:59;;;;;;;;;;;;;;;12.17;75.94;102305.47;5094538;28;19930;-35
2021/09/06 04:35:24;;;;;;;;;;;;;;;12.11;75.97;102307.13;5097102;28;20247;-35
2021/09/06 04:37:49;;;;;;;;;;;;;;;12.08;76.37;102305.66;5097123;28;20411;-35
2021/09/06 04:40:14;;;;;;;;;;;;;;;12.12;76.19;102306.06;5096991;28;19908;-35
2021/09/06 04:42:39;;;;;;;;;;;;;;;12.16;76.53;102314.66;5096778;28;20011;-36
2021/09/06 04:45:07;;;;;;;;;;;;;;;12.19;76.24;102316.94;5096475;28;20007;-36
2021/09/06 04:47:32;;;;;;;;;;;;;;;12.20;76.27;102321.31;5097004;28;19951;-35
2021/09/06 04:49:57;;;;;;;;;;;;;;;12.23;76.21;102323.63;5097528;28;20370;-36
2021/09/06 04:52:22;;;;;;;;;;;;;;;12.25;76.35;102329.66;5096923;28;19916;-36
2021/09/06 04:54:48;;;;;;;;;;;;;;;12.25;76.37;102318.81;5096573;28;20267;-35
2021/09/06 04:57:13;;;;;;;;;;;;;;;12.23;76.13;102329.88;5096452;28;20312;-35
2021/09/06 04:59:38;;;;;;;;;;;;;;;12.18;75.91;102324.22;5097101;28;20288;-36
2021/09/06 05:02:03;;;;;;;;;;;;;;;12.11;76.02;102326.94;5096495;28;19970;-35
2021/09/06 05:04:28;;;;;;;;;;;;;;;12.05;76.23;102325.06;5096062;28;19915;-35
2021/09/06 05:06:54;;;;;;;;;;;;;;;12.05;76.31;102327.78;5096020;28;19914;-35
2021/09/06 05:09:20;;;;;;;;;;;;;;;12.02;76.29;102335.47;5095953;28;20011;-35
2021/09/06 05:11:45;;;;;;;;;;;;;;;11.99;76.29;102331.28;5097060;28;19943;-36
2021/09/06 05:14:10;;;;;;;;;;;;;;;12.00;76.05;102338.34;5096464;28;19926;-35
2021/09/06 05:16:35;;;;;;;;;;;;;;;11.99;76.48;102338.56;5096386;28;19958;-35
2021/09/06 05:19:01;;;;;;;;;;;;;;;12.01;76.48;102350.91;5096028;28;19958;-36
2021/09/06 05:21:26;;;;;;;;;;;;;;;12.03;76.74;102348.81;5095980;28;19959;-36
2021/09/06 05:23:52;;;;;;;;;;;;;;;12.06;76.62;102353.84;5096000;28;19915;-36
2021/09/06 05:26:17;;;;;;;;;;;;;;;12.07;76.25;102349.25;5096033;28;19908;-35
2021/09/06 05:28:42;;;;;;;;;;;;;;;12.06;76.44;102356.53;5095909;28;20387;-35
2021/09/06 05:31:10;;;;;;;;;;;;;;;12.06;76.45;102353.00;5096597;28;19911;-36
2021/09/06 05:33:35;;;;;;;;;;;;;;;12.06;76.17;102353.84;5096396;28;20001;-35
2021/09/06 05:36:00;;;;;;;;;;;;;;;12.07;76.43;102360.91;5096152;28;19911;-36
2021/09/06 05:38:26;;;;;;;;;;;;;;;12.09;76.57;102363.41;5095735;28;19908;-35
2021/09/06 05:40:51;;;;;;;;;;;;;;;12.15;76.70;102359.06;5096478;28;19908;-36
2021/09/06 05:43:16;;;;;;;;;;;;;;;12.22;76.67;102362.63;5095787;28;20367;-35
2021/09/06 05:45:42;;;;;;;;;;;;;;;12.27;76.48;102366.41;5094503;28;19912;-36
2021/09/06 05:48:07;;;;;;;;;;;;;;;12.33;76.60;102367.44;5095261;28;20297;-36
2021/09/06 05:50:32;;;;;;;;;;;;;;;12.39;76.50;102369.31;5095686;28;19908;-35
2021/09/06 05:52:57;;;;;;;;;;;;;;;12.42;76.52;102374.34;5095498;28;19959;-35
2021/09/06 05:55:23;;;;;;;;;;;;;;;12.46;76.55;102369.38;5095736;28;19908;-36
2021/09/06 05:57:48;;;;;;;;;;;;;;;12.51;76.56;102370.41;5095731;28;19981;-35
2021/09/06 06:00:13;;;;;;;;;;;;;;;12.59;76.45;102374.78;5095509;28;19907;-35
2021/09/06 06:02:38;;;;;;;;;;;;;;;12.65;78.26;102373.97;5095679;28;19908;-36
2021/09/06 06:05:04;;;;;;;;;;;;;;;12.67;78.67;102376.47;5095616;28;19908;-36
2021/09/06 06:07:29;;;;;;;;;;;;;;;12.70;78.10;102379.63;5095644;28;19987;-35
2021/09/06 06:09:55;;;;;;;;;;;;;;;12.74;77.94;102388.19;5094908;28;19908;-35
2021/09/06 06:12:20;;;;;;;;;;;;;;;12.79;77.31;102385.69;5094859;28;19912;-35
2021/09/06 06:14:45;;;;;;;;;;;;;;;12.86;77.02;102391.94;5095017;28;19965;-36
2021/09/06 06:17:11;;;;;;;;;;;;;;;12.92;78.30;102395.69;5095116;28;20010;-36
2021/09/06 06:19:36;;;;;;;;;;;;;;;12.99;78.23;102391.13;5094662;28;20337;-35
2021/09/06 06:22:01;;;;;;;;;;;;;;;13.06;77.43;102392.75;5095076;28;19951;-35
2021/09/06 06:24:27;;;;;;;;;;;;;;;13.13;77.58;102395.50;5094950;28;19912;-35
2021/09/06 06:26:52;;;;;;;;;;;;;;;13.14;77.27;102387.13;5094588;28;19908;-36
2021/09/06 06:29:17;;;;;;;;;;;;;;;13.23;77.35;102392.38;5095100;28;20353;-36
2021/09/06 06:31:42;;;;;;;;;;;;;;;13.32;77.45;102391.94;5094978;28;19998;-36
2021/09/06 06:34:08;;;;;;;;;;;;;;;13.42;77.94;102386.09;5094662;28;20335;-36
2021/09/06 06:36:33;;;;;;;;;;;;;;;13.52;77.37;102391.06;5094826;28;19927;-35
2021/09/06 06:38:58;;;;;;;;;;;;;;;13.59;78.47;102398.16;5094419;28;20288;-36
2021/09/06 06:41:23;;;;;;;;;;;;;;;13.65;84.36;102400.00;5094547;28;19908;-35
2021/09/06 06:43:48;;;;;;;;;;;;;;;13.72;81.80;102405.44;5094452;28;19908;-36
2021/09/06 06:46:14;;;;;;;;;;;;;;;13.73;85.60;102401.66;5095046;28;19915;-35
2021/09/06 06:48:39;;;;;;;;;;;;;;;13.80;83.32;102401.63;5094413;28;19908;-35
2021/09/06 06:51:05;;;;;;;;;;;;;;;13.90;85.29;102399.28;5094347;28;19914;-35
2021/09/06 06:53:30;;;;;;;;;;;;;;;13.96;84.07;102403.03;5094049;28;19957;-36
2021/09/06 06:55:55;;;;;;;;;;;;;;;14.06;84.67;102408.88;5094414;28;20227;-35
2021/09/06 06:58:20;;;;;;;;;;;;;;;14.12;83.10;102408.81;5093943;28;19914;-35
2021/09/06 07:00:46;;;;;;;;;;;;;;;14.22;83.49;102416.53;5094681;28;19908;-36
2021/09/06 07:03:11;;;;;;;;;;;;;;;14.31;82.95;102415.22;5094092;28;19911;-36
2021/09/06 07:05:36;;;;;;;;;;;;;;;14.39;84.28;102416.84;5094356;28;19924;-35
2021/09/06 07:08:01;;;;;;;;;;;;;;;14.45;82.95;102409.72;5094068;28;20206;-36
2021/09/06 07:10:26;;;;;;;;;;;;;;;14.52;83.67;102414.06;5093778;28;19908;-36
2021/09/06 07:12:52;;;;;;;;;;;;;;;14.57;86.42;102416.16;5093918;28;19908;-35
2021/09/06 07:15:17;;;;;;;;;;;;;;;14.61;85.91;102418.22;5094271;28;20233;-35
2021/09/06 07:17:42;;;;;;;;;;;;;;;14.66;87.15;102423.84;5093920;28;19951;-35
2021/09/06 07:20:08;;;;;;;;;;;;;;;14.73;85.59;102425.66;5093764;28;19959;-35
2021/09/06 07:22:33;;;;;;;;;;;;;;;14.84;84.15;102433.97;5094142;28;19911;-36
2021/09/06 07:24:59;;;;;;;;;;;;;;;14.93;84.86;102437.25;5093808;28;19908;-36
2021/09/06 07:27:25;;;;;;;;;;;;;;;15.02;84.79;102438.63;5093753;28;19915;-36
2021/09/06 07:29:50;;;;;;;;;;;;;;;15.10;84.45;102429.38;5093752;28;19914;-36
2021/09/06 07:32:15;;;;;;;;;;;;;;;15.22;86.10;102432.19;5094035;28;19908;-36
2021/09/06 07:34:40;;;;;;;;;;;;;;;15.29;86.32;102444.72;5093239;28;19908;-35
2021/09/06 07:37:07;;;;;;;;;;;;;;;15.40;85.97;102443.13;5093902;28;19908;-36
2021/09/06 07:39:33;;;;;;;;;;;;;;;15.49;85.52;102436.34;5093889;28;19908;-35
2021/09/06 07:41:58;;;;;;;;;;;;;;;15.54;85.10;102439.22;5093575;28;19966;-36
2021/09/06 07:44:24;;;;;;;;;;;;;;;15.61;85.70;102445.44;5093524;28;19923;-36
2021/09/06 07:46:50;;;;;;;;;;;;;;;15.68;85.39;102445.41;5093856;28;19908;-36
2021/09/06 07:49:16;;;;;;;;;;;;;;;15.80;84.53;102446.31;5093484;28;19908;-36
2021/09/06 07:51:41;;;;;;;;;;;;;;;15.92;84.65;102443.69;5094069;28;20228;-35
2021/09/06 07:54:06;;;;;;;;;;;;;;;16.03;85.10;102447.53;5093468;28;19911;-35
2021/09/06 07:56:32;;;;;;;;;;;;;;;16.09;83.96;102441.16;5093737;28;20274;-36
2021/09/06 07:58:57;;;;;;;;;;;;;;;16.17;84.13;102449.88;5094109;28;19911;-35
2021/09/06 08:01:22;;;;;;;;;;;;;;;16.31;83.94;102455.16;5093711;28;19907;-36
2021/09/06 08:03:48;;;;;;;;;;;;;;;16.43;83.50;102454.13;5093352;28;19994;-35
2021/09/06 08:06:13;;;;;;;;;;;;;;;16.56;83.19;102461.31;5093908;28;20006;-36
2021/09/06 08:08:38;;;;;;;;;;;;;;;16.69;83.46;102469.31;5095917;28;19908;-35
2021/09/06 08:11:03;;;;;;;;;;;;;;;16.79;83.21;102460.59;5098136;28;19931;-36
2021/09/06 08:13:29;;;;;;;;;;;;;;;16.88;82.16;102456.44;5095945;28;20289;-36
2021/09/06 08:15:54;;;;;;;;;;;;;;;16.95;82.26;102454.44;5097756;28;20239;-36
2021/09/06 08:18:19;;;;;;;;;;;;;;;17.06;82.02;102462.91;5097282;28;20355;-36
2021/09/06 08:20:44;;;;;;;;;;;;;;;17.13;81.69;102463.63;5097790;28;19908;-36
2021/09/06 08:23:10;;;;;;;;;;;;;;;17.24;81.29;102466.38;5096929;28;19914;-36
2021/09/06 08:25:35;;;;;;;;;;;;;;;17.36;80.97;102468.28;5097418;28;19991;-36
2021/09/06 08:28:00;;;;;;;;;;;;;;;17.46;80.74;102463.06;5096880;28;19977;-36
2021/09/06 08:30:25;;;;;;;;;;;;;;;17.52;81.30;102462.13;5097094;28;20267;-36
2021/09/06 08:32:50;;;;;;;;;;;;;;;17.58;81.05;102466.63;5097348;28;20259;-36
2021/09/06 08:35:16;;;;;;;;;;;;;;;17.67;80.64;102467.94;5097228;28;20022;-36
2021/09/06 08:37:42;;;;;;;;;;;;;;;17.77;80.55;102469.28;5097708;28;19908;-36
2021/09/06 08:40:08;;;;;;;;;;;;;;;17.85;79.83;102461.50;5096434;28;19914;-36
2021/09/06 08:42:33;;;;;;;;;;;;;;;17.96;79.76;102468.88;5097736;28;19915;-36
2021/09/06 08:44:58;;;;;;;;;;;;;;;18.07;79.52;102460.88;5096810;28;19908;-36
2021/09/06 08:47:24;;;;;;;;;;;;;;;18.16;78.79;102468.47;5097102;28;19908;-36
2021/09/06 08:49:51;;;;;;;;;;;;;;;18.26;78.85;102471.41;5096417;28;19933;-36
2021/09/06 08:52:16;;;;;;;;;;;;;;;18.36;78.77;102473.53;5096691;28;19908;-36
2021/09/06 08:54:42;;;;;;;;;;;;;;;18.48;77.72;102477.03;5096299;28;19907;-36
2021/09/06 08:57:07;;;;;;;;;;;;;;;18.55;76.49;102476.91;5096263;28;19909;-36
2021/09/06 08:59:32;;;;;;;;;;;;;;;18.58;76.62;102481.88;5096488;28;20000;-36
2021/09/06 09:01:57;;;;;;;;;;;;;;;18.65;76.27;102481.75;5096855;28;19919;-36
2021/09/06 09:04:25;;;;;;;;;;;;;;;18.77;77.37;102479.81;5096469;28;19912;-36
2021/09/06 09:06:59;;;;;;;;;;;;;;;18.93;76.08;102483.63;5096693;28;20245;-36
2021/09/06 09:09:25;;;;;;;;;;;;;;;19.08;76.77;102481.19;5096380;28;19915;-36
2021/09/06 09:12:00;;;;;;;;;;;;;;;19.15;74.98;102470.03;5096799;28;19915;-36
2021/09/06 09:14:25;;;;;;;;;;;;;;;19.24;74.16;102480.34;5096422;28;20004;-36
2021/09/06 09:16:57;;;;;;;;;;;;;;;19.35;75.40;102477.78;5096514;28;20364;-36
2021/09/06 09:19:22;;;;;;;;;;;;;;;19.50;74.85;102475.25;5095983;28;20011;-36
2021/09/06 09:21:51;;;;;;;;;;;;;;;19.60;74.43;102469.94;5096183;28;19947;-36
2021/09/06 09:24:23;;;;;;;;;;;;;;;19.77;73.96;102476.25;5096435;28;19916;-36
2021/09/06 09:27:08;;;;;;;;;;;;;;;19.96;74.78;102475.91;5096056;28;20317;-36
2021/09/06 09:29:33;;;;;;;;;;;;;;;20.04;69.43;102480.97;5096839;28;19915;-36
2021/09/06 09:32:03;;;;;;;;;;;;;;;20.06;68.91;102481.56;5096522;28;19911;-36
2021/09/06 09:34:29;;;;;;;;;;;;;;;20.10;70.04;102488.19;5096036;28;19912;-36
2021/09/06 09:36:55;;;;;;;;;;;;;;;20.21;67.59;102478.19;5096188;28;19915;-36
2021/09/06 09:39:21;;;;;;;;;;;;;;;20.25;66.33;102479.31;5095968;28;20247;-36
2021/09/06 09:41:47;;;;;;;;;;;;;;;20.31;66.40;102475.56;5096106;28;19908;-36
2021/09/06 09:44:16;;;;;;;;;;;;;;;20.42;67.25;102482.81;5095698;28;19943;-36
2021/09/06 09:46:50;;;;;;;;;;;;;;;20.50;67.84;102487.06;5095611;28;19908;-36
2021/09/06 09:49:16;;;;;;;;;;;;;;;20.54;68.38;102483.53;5096225;28;19908;-36
2021/09/06 09:51:41;;;;;;;;;;;;;;;20.55;69.22;102481.63;5096206;28;19914;-36
2021/09/06 09:54:06;;;;;;;;;;;;;;;20.58;68.92;102484.66;5095543;28;19915;-36
2021/09/06 09:56:32;;;;;;;;;;;;;;;20.60;68.65;102486.34;5095803;28;20077;-36
2021/09/06 09:58:58;;;;;;;;;;;;;;;20.54;67.07;102480.78;5096145;28;19912;-36
2021/09/06 10:01:24;;;;;;;;;;;;;;;20.61;68.79;102477.84;5095869;28;19908;-36
2021/09/06 10:03:51;;;;;;;;;;;;;;;20.74;68.00;102480.19;5095294;28;19954;-36
2021/09/06 10:06:16;;;;;;;;;;;;;;;20.91;66.27;102481.97;5095842;28;20298;-36
2021/09/06 10:08:42;;;;;;;;;;;;;;;21.07;66.73;102475.50;5095150;28;19908;-36
2021/09/06 10:11:11;;;;;;;;;;;;;;;21.21;67.53;102473.16;5095603;28;19998;-36
2021/09/06 10:13:40;;;;;;;;;;;;;;;21.38;66.54;102473.88;5095094;28;19915;-36
2021/09/06 10:16:05;;;;;;;;;;;;;;;21.54;67.39;102469.31;5095732;28;19958;-36
2021/09/06 10:18:36;;;;;;;;;;;;;;;21.70;67.24;102462.78;5094917;28;19916;-36
2021/09/06 10:21:09;;;;;;;;;;;;;;;21.85;66.23;102467.53;5094954;28;19908;-36
2021/09/06 10:23:41;;;;;;;;;;;;;;;21.95;66.07;102464.84;5095350;28;20240;-36
2021/09/06 10:26:08;;;;;;;;;;;;;;;22.03;66.59;102469.00;5094896;28;20313;-37
2021/09/06 10:28:33;;;;;;;;;;;;;;;22.13;65.12;102465.50;5094819;28;19908;-37
2021/09/06 10:30:58;;;;;;;;;;;;;;;22.24;64.98;102464.44;5094269;28;20327;-36
2021/09/06 10:33:50;;;;;;;;;;;;;;;22.32;64.96;102464.75;5094884;28;19908;-36
2021/09/06 10:36:20;;;;;;;;;;;;;;;22.46;64.44;102469.75;5091664;28;19908;-36
2021/09/06 10:38:49;;;;;;;;;;;;;;;22.53;64.89;102470.31;5094914;28;19908;-36
2021/09/06 10:41:19;;;;;;;;;;;;;;;22.64;63.48;102471.97;5094833;28;19908;-36
2021/09/06 10:43:48;;;;;;;;;;;;;;;22.65;61.85;102462.63;5095139;28;19954;-36
2021/09/06 10:46:14;;;;;;;;;;;;;;;22.68;62.74;102466.75;5094805;28;19907;-36
2021/09/06 10:48:39;;;;;;;;;;;;;;;22.74;62.86;102466.50;5094487;28;20250;-36
2021/09/06 10:51:04;;;;;;;;;;;;;;;22.81;63.34;102461.53;5094444;28;19980;-36
2021/09/06 10:53:30;;;;;;;;;;;;;;;22.96;61.83;102466.25;5095174;28;20378;-36
2021/09/06 10:55:56;;;;;;;;;;;;;;;23.11;61.72;102454.41;5094984;28;19908;-36
2021/09/06 10:58:23;;;;;;;;;;;;;;;23.17;59.46;102456.03;5094031;28;20359;-36
2021/09/06 11:00:53;;;;;;;;;;;;;;;23.12;60.71;102456.88;5094245;28;19959;-36
2021/09/06 11:03:23;;;;;;;;;;;;;;;23.27;60.69;102461.53;5094156;28;20007;-36
2021/09/06 11:05:53;;;;;;;;;;;;;;;23.37;59.71;102458.75;5094677;28;19959;-36
2021/09/06 11:08:22;;;;;;;;;;;;;;;23.43;57.87;102450.50;5093733;28;19911;-36
2021/09/06 11:10:48;;;;;;;;;;;;;;;23.42;55.93;102455.16;5094626;28;19908;-36
2021/09/06 11:13:13;;;;;;;;;;;;;;;23.34;58.66;102453.81;5094072;28;19908;-36
2021/09/06 11:15:38;;;;;;;;;;;;;;;23.17;55.29;102444.16;5094526;28;19913;-36
2021/09/06 11:18:05;;;;;;;;;;;;;;;23.09;56.32;102445.56;5093957;28;19920;-36
2021/09/06 11:20:32;;;;;;;;;;;;;;;23.06;57.45;102443.34;5094648;28;19908;-36
2021/09/06 11:23:01;;;;;;;;;;;;;;;23.10;58.46;102438.94;5093907;28;19934;-36
2021/09/06 11:25:27;;;;;;;;;;;;;;;23.19;57.07;102430.94;5094108;28;19907;-36
2021/09/06 11:28:02;;;;;;;;;;;;;;;23.22;57.10;102427.59;5093579;28;19990;-36
2021/09/06 11:30:27;;;;;;;;;;;;;;;23.12;54.10;102432.03;5094067;28;20244;-36
2021/09/06 11:32:52;;;;;;;;;;;;;;;23.07;55.12;102436.72;5094245;28;19908;-36
2021/09/06 11:35:19;;;;;;;;;;;;;;;23.14;56.79;102437.28;5093683;28;20010;-36
2021/09/06 11:37:44;;;;;;;;;;;;;;;23.31;56.35;102445.25;5093725;28;19908;-36
2021/09/06 11:40:10;;;;;;;;;;;;;;;23.41;56.52;102441.66;5093708;28;19914;-36
2021/09/06 11:42:35;;;;;;;;;;;;;;;23.45;56.90;102438.06;5094331;28;20332;-36
2021/09/06 11:45:01;;;;;;;;;;;;;;;23.45;54.29;102434.47;5093373;28;20374;-36
2021/09/06 11:47:28;;;;;;;;;;;;;;;23.65;56.85;102431.69;5093956;28;19914;-36
2021/09/06 11:49:54;;;;;;;;;;;;;;;23.88;56.38;102425.53;5093505;28;19908;-36
2021/09/06 11:52:27;;;;;;;;;;;;;;;24.07;55.26;102430.44;5094104;28;19950;-36
2021/09/06 11:54:52;;;;;;;;;;;;;;;24.19;55.23;102428.13;5094459;28;19908;-36
2021/09/06 11:57:24;;;;;;;;;;;;;;;24.32;55.33;102426.69;5093762;28;19934;-36
2021/09/06 11:59:51;;;;;;;;;;;;;;;24.39;52.20;102427.22;5093668;28;19908;-36
2021/09/06 12:02:16;;;;;;;;;;;;;;;24.40;53.75;102420.56;5093190;28;20413;-36
2021/09/06 12:04:41;;;;;;;;;;;;;;;24.32;54.49;102433.03;5093373;28;19908;-36
2021/09/06 12:07:16;;;;;;;;;;;;;;;24.33;54.55;102431.94;5093609;28;19959;-36
2021/09/06 12:09:41;;;;;;;;;;;;;;;24.39;53.60;102430.81;5093433;28;19919;-36
2021/09/06 12:12:14;;;;;;;;;;;;;;;24.43;55.22;102439.38;5094044;28;19908;-36
2021/09/06 12:14:47;;;;;;;;;;;;;;;24.51;53.83;102426.88;5093809;28;19985;-36
2021/09/06 12:17:12;;;;;;;;;;;;;;;24.64;52.89;102434.50;5093745;28;20312;-36
2021/09/06 12:19:41;;;;;;;;;;;;;;;24.71;53.08;102435.03;5092850;28;19918;-36
2021/09/06 12:22:13;;;;;;;;;;;;;;;24.76;52.56;102434.16;5093338;28;19908;-36
2021/09/06 12:24:38;;;;;;;;;;;;;;;24.81;49.32;102432.19;5093252;28;19990;-36
2021/09/06 12:27:09;;;;;;;;;;;;;;;24.83;49.29;102426.34;5093870;28;19962;-36
2021/09/06 12:29:35;;;;;;;;;;;;;;;24.86;49.22;102434.09;5093394;28;19912;-36